createdAt,value
2023-03-27T00:01:14.965Z,47.01
2023-03-27T00:03:49.693Z,46.02
2023-03-27T00:06:18.998Z,46.60
2023-03-27T00:08:48.119Z,46.97
2023-03-27T00:11:15.758Z,47.60
2023-03-27T00:13:50.004Z,47.04
2023-03-27T00:16:19.091Z,48.19
2023-03-27T00:18:46.870Z,48.24
2023-03-27T00:21:14.331Z,49.94
2023-03-27T00:23:42.459Z,50.15
2023-03-27T00:26:10.047Z,49.62
2023-03-27T00:28:37.199Z,51.08
2023-03-27T00:31:04.403Z,51.43
2023-03-27T00:33:31.391Z,51.26
2023-03-27T00:35:58.451Z,51.59
2023-03-27T00:38:25.526Z,50.57
2023-03-27T00:40:55.536Z,52.43
2023-03-27T00:43:28.471Z,51.50
2023-03-27T00:46:06.019Z,51.91
2023-03-27T00:48:35.573Z,51.73
2023-03-27T00:51:03.937Z,52.22
2023-03-27T00:53:31.176Z,52.07
2023-03-27T00:56:03.977Z,52.12
2023-03-27T00:58:43.035Z,50.91
2023-03-27T01:01:13.780Z,50.80
2023-03-27T01:03:42.997Z,51.95
2023-03-27T01:06:14.018Z,52.05
2023-03-27T01:08:44.060Z,50.47
2023-03-27T01:11:31.288Z,51.40
2023-03-27T01:14:16.450Z,52.36
2023-03-27T01:17:25.580Z,51.49
2023-03-27T01:20:11.790Z,50.60
2023-03-27T01:22:57.144Z,51.91
2023-03-27T01:25:37.132Z,50.94
2023-03-27T01:28:16.863Z,52.06
2023-03-27T01:30:50.178Z,52.71
2023-03-27T01:33:26.632Z,51.55
2023-03-27T01:36:28.154Z,50.57
2023-03-27T01:39:25.556Z,51.86
2023-03-27T01:42:09.518Z,51.55
2023-03-27T01:44:51.433Z,51.96
2023-03-27T01:47:24.599Z,51.85
2023-03-27T01:50:21.556Z,52.22
2023-03-27T01:52:55.783Z,51.34
2023-03-27T01:55:28.344Z,52.53
2023-03-27T01:58:03.153Z,51.71
2023-03-27T02:00:51.635Z,50.83
2023-03-27T02:03:27.592Z,51.67
2023-03-27T02:06:03.415Z,50.94
2023-03-27T02:08:43.528Z,50.51
2023-03-27T02:11:34.555Z,51.68
2023-03-27T02:14:07.235Z,50.74
2023-03-27T02:16:42.661Z,51.58
2023-03-27T02:19:20.328Z,51.69
2023-03-27T02:21:49.991Z,50.43
2023-03-27T02:24:17.955Z,50.50
2023-03-27T02:26:46.212Z,51.96
2023-03-27T02:29:51.685Z,52.25
2023-03-27T02:33:01.038Z,53.94
2023-03-27T02:35:39.798Z,54.71
2023-03-27T02:38:14.884Z,54.14
2023-03-27T02:40:54.418Z,52.55
2023-03-27T02:43:56.215Z,53.62
2023-03-27T02:47:16.607Z,53.92
2023-03-27T02:49:52.916Z,54.92
2023-03-27T02:52:31.137Z,53.73
2023-03-27T02:55:10.792Z,53.82
2023-03-27T02:57:52.303Z,53.84
2023-03-27T03:00:28.271Z,53.93
2023-03-27T03:03:32.277Z,54.35
2023-03-27T03:06:29.732Z,52.82
2023-03-27T03:09:06.346Z,53.17
2023-03-27T03:11:38.386Z,53.06
2023-03-27T03:14:06.165Z,53.42
2023-03-27T03:16:34.049Z,53.62
2023-03-27T03:19:02.665Z,52.03
2023-03-27T03:21:29.988Z,52.35
2023-03-27T03:23:58.208Z,52.55
2023-03-27T03:26:27.267Z,53.67
2023-03-27T03:28:59.869Z,52.15
2023-03-27T03:31:43.286Z,53.81
2023-03-27T03:34:19.119Z,52.79
2023-03-27T03:36:50.082Z,52.66
2023-03-27T03:39:23.852Z,52.65
2023-03-27T03:41:51.169Z,54.11
2023-03-27T03:44:18.383Z,54.08
2023-03-27T03:46:45.426Z,54.08
2023-03-27T03:49:12.445Z,54.18
2023-03-27T03:51:39.327Z,54.74
2023-03-27T03:54:07.212Z,54.33
2023-03-27T03:56:34.835Z,55.04
2023-03-27T03:59:01.768Z,55.25
2023-03-27T04:01:30.049Z,55.26
2023-03-27T04:04:02.343Z,55.17
2023-03-27T04:06:45.619Z,56.84
2023-03-27T04:09:12.538Z,56.86
2023-03-27T04:11:56.219Z,56.12
2023-03-27T04:14:41.694Z,54.77
2023-03-27T04:17:28.725Z,55.88
2023-03-27T04:19:57.488Z,56.97
2023-03-27T04:22:26.364Z,55.72
2023-03-27T04:24:53.782Z,55.28
2023-03-27T04:27:22.066Z,55.78
2023-03-27T04:30:15.893Z,56.34
2023-03-27T04:33:23.085Z,56.30
2023-03-27T04:36:19.703Z,56.51
2023-03-27T04:39:17.363Z,57.03
2023-03-27T04:41:51.211Z,56.75
2023-03-27T04:44:18.789Z,57.44
2023-03-27T04:46:49.449Z,55.80
2023-03-27T04:49:20.523Z,57.01
2023-03-27T04:52:01.842Z,57.25
2023-03-27T04:54:31.952Z,56.66
2023-03-27T04:57:02.027Z,57.45
2023-03-27T04:59:32.335Z,55.93
2023-03-27T05:02:19.222Z,56.70
2023-03-27T05:05:03.009Z,57.13
2023-03-27T05:07:33.014Z,57.09
2023-03-27T05:10:02.605Z,57.06
2023-03-27T05:12:29.972Z,58.19
2023-03-27T05:15:04.005Z,58.71
2023-03-27T05:17:40.936Z,57.93
2023-03-27T05:20:14.989Z,58.02
2023-03-27T05:22:43.481Z,57.97
2023-03-27T05:25:39.567Z,58.91
2023-03-27T05:28:11.943Z,57.92
2023-03-27T05:30:38.929Z,57.05
2023-03-27T05:33:32.344Z,57.70
2023-03-27T05:35:59.281Z,58.81
2023-03-27T05:38:26.851Z,58.56
2023-03-27T05:41:25.957Z,58.67
2023-03-27T05:43:53.651Z,59.52
2023-03-27T05:46:21.831Z,58.41
2023-03-27T05:49:02.687Z,58.18
2023-03-27T05:51:31.648Z,58.94
2023-03-27T05:53:59.134Z,60.80
2023-03-27T05:56:35.286Z,60.50
2023-03-27T05:59:04.207Z,60.42
2023-03-27T06:01:35.870Z,59.59
2023-03-27T06:04:04.577Z,61.24
2023-03-27T06:06:51.541Z,60.00
2023-03-27T06:09:18.489Z,61.52
2023-03-27T06:12:02.952Z,61.00
2023-03-27T06:14:37.261Z,59.08
2023-03-27T06:17:20.827Z,58.98
2023-03-27T06:19:58.689Z,58.62
2023-03-27T06:22:26.854Z,59.45
2023-03-27T06:24:56.988Z,58.95
2023-03-27T06:27:24.194Z,58.17
2023-03-27T06:29:51.089Z,56.52
2023-03-27T06:32:19.459Z,57.41
2023-03-27T06:34:50.978Z,55.97
2023-03-27T06:37:51.361Z,57.13
2023-03-27T06:40:23.111Z,56.70
2023-03-27T06:42:59.935Z,55.62
2023-03-27T06:45:44.432Z,55.64
2023-03-27T06:48:40.608Z,55.75
2023-03-27T06:51:08.406Z,54.50
2023-03-27T06:53:37.884Z,55.27
2023-03-27T06:56:06.733Z,55.39
2023-03-27T06:58:53.493Z,54.78
2023-03-27T07:01:26.829Z,53.87
2023-03-27T07:04:13.670Z,52.60
2023-03-27T07:06:51.139Z,53.55
2023-03-27T07:09:18.811Z,53.60
2023-03-27T07:11:56.786Z,53.34
2023-03-27T07:14:24.379Z,52.89
2023-03-27T07:16:51.430Z,51.76
2023-03-27T07:19:19.137Z,52.16
2023-03-27T07:21:56.346Z,50.74
2023-03-27T07:24:24.485Z,51.80
2023-03-27T07:26:51.400Z,50.98
2023-03-27T07:29:23.138Z,52.52
2023-03-27T07:31:58.764Z,52.14
2023-03-27T07:34:37.194Z,52.31
2023-03-27T07:37:06.945Z,51.20
2023-03-27T07:39:35.412Z,51.99
2023-03-27T07:42:03.145Z,51.92
2023-03-27T07:44:46.486Z,51.91
2023-03-27T07:47:14.424Z,51.59
2023-03-27T07:49:42.185Z,51.23
2023-03-27T07:52:14.713Z,51.37
2023-03-27T07:54:52.241Z,51.13
2023-03-27T07:57:22.133Z,50.48
2023-03-27T07:59:52.719Z,51.27
2023-03-27T08:02:30.696Z,51.58
2023-03-27T08:04:58.172Z,50.14
2023-03-27T08:07:25.562Z,50.10
2023-03-27T08:09:57.586Z,49.99
2023-03-27T08:12:24.452Z,50.65
2023-03-27T08:14:57.619Z,50.41
2023-03-27T08:17:28.782Z,50.74
2023-03-27T08:19:56.242Z,50.15
2023-03-27T08:22:24.852Z,50.60
2023-03-27T08:25:10.496Z,48.40
2023-03-27T08:27:39.385Z,48.57
2023-03-27T08:30:07.133Z,50.72
2023-03-27T08:32:39.883Z,49.17
2023-03-27T08:35:09.780Z,47.99
2023-03-27T08:37:36.652Z,48.41
2023-03-27T08:40:26.986Z,48.31
2023-03-27T08:43:18.278Z,49.58
2023-03-27T08:45:53.573Z,48.46
2023-03-27T08:48:38.154Z,50.00
2023-03-27T08:51:14.838Z,49.11
2023-03-27T08:53:54.858Z,48.42
2023-03-27T08:56:27.212Z,47.70
2023-03-27T08:58:55.370Z,47.68
2023-03-27T09:01:36.792Z,46.48
2023-03-27T09:04:14.941Z,47.92
2023-03-27T09:06:55.955Z,46.78
2023-03-27T09:09:40.425Z,47.10
2023-03-27T09:12:19.702Z,47.04
2023-03-27T09:15:00.586Z,45.33
2023-03-27T09:17:33.593Z,45.04
2023-03-27T09:20:35.257Z,45.03
2023-03-27T09:23:13.953Z,43.77
2023-03-27T09:26:06.837Z,44.84
2023-03-27T09:29:25.700Z,43.82
2023-03-27T09:32:24.610Z,42.16
2023-03-27T09:34:51.486Z,41.86
2023-03-27T09:37:18.533Z,41.18
2023-03-27T09:39:52.412Z,41.99
2023-03-27T09:42:31.063Z,41.87
2023-03-27T09:45:02.940Z,39.92
2023-03-27T09:47:45.252Z,39.86
2023-03-27T09:50:49.303Z,38.71
2023-03-27T09:53:35.395Z,38.90
2023-03-27T09:56:17.837Z,37.47
2023-03-27T09:58:54.893Z,37.73
2023-03-27T10:01:34.542Z,37.44
2023-03-27T10:04:18.830Z,37.19
2023-03-27T10:07:02.451Z,36.80
2023-03-27T10:43:53.234Z,35.02
2023-03-27T10:46:26.041Z,36.14
2023-03-27T10:49:04.375Z,36.45
2023-03-27T10:51:55.762Z,36.61
2023-03-27T10:54:54.919Z,35.08
2023-03-27T10:57:29.209Z,36.33
2023-03-27T11:00:32.792Z,36.55
2023-03-27T11:03:22.479Z,36.50
2023-03-27T11:05:58.376Z,36.25
2023-03-27T11:08:44.909Z,36.55
2023-03-27T11:11:35.805Z,36.32
2023-03-27T11:14:10.170Z,36.14
2023-03-27T11:16:49.864Z,36.79
2023-03-27T11:19:43.770Z,36.95
2023-03-27T11:23:07.569Z,36.87
2023-03-27T11:26:16.397Z,36.04
2023-03-27T11:28:53.156Z,36.89
2023-03-27T11:31:40.676Z,37.13
2023-03-27T11:34:29.025Z,37.51
2023-03-27T11:37:42.155Z,39.23
2023-03-27T11:40:20.471Z,39.97
2023-03-27T11:42:52.375Z,41.82
2023-03-27T11:45:31.098Z,42.05
2023-03-27T11:48:01.347Z,42.34
2023-03-27T11:50:42.246Z,41.75
2023-03-27T11:53:09.205Z,40.56
2023-03-27T11:56:08.021Z,40.53
2023-03-27T11:58:56.721Z,40.03
2023-03-27T12:01:34.615Z,40.55
2023-03-27T12:04:20.132Z,43.67
2023-03-27T12:07:47.927Z,43.47
2023-03-27T12:10:17.615Z,44.45
2023-03-27T12:13:41.866Z,46.28
2023-03-27T12:16:36.279Z,45.91
2023-03-27T12:19:28.879Z,45.20
2023-03-27T12:22:36.934Z,44.97
2023-03-27T12:25:35.882Z,45.38
2023-03-27T12:28:53.162Z,45.85
2023-03-27T12:32:26.156Z,45.94
2023-03-27T12:34:59.822Z,44.35
2023-03-27T12:37:44.533Z,36.69
2023-03-27T12:40:35.022Z,36.54
2023-03-27T12:43:24.170Z,36.10
2023-03-27T12:46:30.590Z,35.82
2023-03-27T12:49:08.156Z,35.05
2023-03-27T12:52:02.855Z,34.83
2023-03-27T12:55:18.986Z,36.38
2023-03-27T12:57:55.428Z,35.94
2023-03-27T13:01:00.856Z,36.94
2023-03-27T13:04:16.688Z,35.98
2023-03-27T13:07:16.558Z,35.83
2023-03-27T13:10:24.123Z,35.76
2023-03-27T13:12:59.655Z,34.02
2023-03-27T13:15:32.344Z,34.07
2023-03-27T13:18:16.706Z,34.83
2023-03-27T13:21:22.874Z,33.81
2023-03-27T13:24:33.779Z,33.07
2023-03-27T13:27:19.669Z,33.41
2023-03-27T13:29:51.752Z,34.16
2023-03-27T13:32:28.476Z,34.94
2023-03-27T13:35:22.054Z,34.69
2023-03-27T13:37:49.117Z,33.16
2023-03-27T13:40:28.736Z,33.21
2023-03-27T13:43:22.670Z,33.13
2023-03-27T13:45:59.031Z,34.03
2023-03-27T13:48:55.419Z,33.99
2023-03-27T13:51:56.869Z,34.09
2023-03-27T13:54:40.203Z,34.19
2023-03-27T13:57:31.400Z,34.70
2023-03-27T14:00:33.291Z,35.10
2023-03-27T14:03:29.492Z,34.08
2023-03-27T14:06:03.956Z,34.84
2023-03-27T14:08:53.815Z,34.59
2023-03-27T14:11:45.678Z,35.00
2023-03-27T14:14:47.540Z,34.62
2023-03-27T14:17:41.678Z,33.79
2023-03-27T14:20:21.190Z,35.53
2023-03-27T14:22:53.611Z,34.79
2023-03-27T14:25:30.484Z,36.01
2023-03-27T14:28:29.209Z,36.91
2023-03-27T14:31:01.342Z,36.18
2023-03-27T14:34:01.791Z,36.18
2023-03-27T14:36:34.236Z,35.63
2023-03-27T14:39:16.159Z,35.39
2023-03-27T14:41:58.598Z,34.90
2023-03-27T14:44:31.011Z,34.79
2023-03-27T14:47:08.376Z,33.96
2023-03-27T14:49:50.394Z,34.95
2023-03-27T14:52:37.966Z,34.01
2023-03-27T14:55:35.852Z,33.74
2023-03-27T14:58:35.485Z,33.80
2023-03-27T15:01:05.235Z,33.65
2023-03-27T15:03:37.102Z,34.54
2023-03-27T15:06:13.527Z,34.25
2023-03-27T15:08:52.183Z,33.98
2023-03-27T15:11:39.162Z,34.60
2023-03-27T15:14:18.712Z,34.65
2023-03-27T15:16:53.139Z,34.53
2023-03-27T15:19:23.192Z,34.85
2023-03-27T15:22:05.888Z,35.70
2023-03-27T15:24:54.190Z,35.43
2023-03-27T15:27:32.288Z,34.44
2023-03-27T15:30:21.033Z,34.88
2023-03-27T15:32:52.452Z,35.24
2023-03-27T15:35:27.497Z,35.88
2023-03-27T15:37:54.585Z,36.35
2023-03-27T15:40:32.995Z,36.54
2023-03-27T15:43:04.817Z,36.91
2023-03-27T15:45:42.221Z,38.61
2023-03-27T15:48:19.776Z,39.18
2023-03-27T15:51:01.326Z,39.82
2023-03-27T15:53:43.332Z,40.37
2023-03-27T15:56:13.108Z,41.02
2023-03-27T15:59:02.849Z,41.22
2023-03-27T16:01:33.572Z,41.87
2023-03-27T16:04:06.623Z,42.54
2023-03-27T16:06:38.671Z,43.02
2023-03-27T16:09:19.001Z,44.35
2023-03-27T16:11:47.226Z,46.07
2023-03-27T16:14:32.193Z,47.73
2023-03-27T16:17:19.805Z,47.57
2023-03-27T16:19:56.688Z,44.75
2023-03-27T16:22:32.114Z,43.93
2023-03-27T16:25:00.914Z,43.24
2023-03-27T16:27:34.067Z,43.81
2023-03-27T16:30:01.014Z,44.26
2023-03-27T16:32:27.832Z,46.33
2023-03-27T16:34:54.701Z,47.23
2023-03-27T16:37:23.882Z,48.38
2023-03-27T16:39:50.941Z,49.95
2023-03-27T16:42:22.681Z,51.34
2023-03-27T16:44:52.510Z,52.13
2023-03-27T16:47:20.562Z,52.92
2023-03-27T16:49:56.261Z,52.33
2023-03-27T16:52:34.727Z,52.33
2023-03-27T16:55:03.964Z,51.77
2023-03-27T16:57:32.753Z,53.53
2023-03-27T16:59:59.548Z,52.20
2023-03-27T17:02:26.786Z,52.08
2023-03-27T17:04:53.864Z,53.17
2023-03-27T17:07:20.719Z,53.50
2023-03-27T17:09:47.633Z,52.99
2023-03-27T17:12:14.504Z,52.96
2023-03-27T17:14:41.490Z,55.27
2023-03-27T17:17:08.372Z,55.96
2023-03-27T17:19:35.296Z,57.53
2023-03-27T17:22:02.344Z,58.50
2023-03-27T17:24:29.152Z,58.16
2023-03-27T17:26:55.971Z,57.63
2023-03-27T17:29:22.832Z,58.41
2023-03-27T17:31:51.960Z,59.73
2023-03-27T17:34:19.874Z,58.25
2023-03-27T17:36:54.018Z,59.89
2023-03-27T17:39:22.113Z,60.14
2023-03-27T17:41:49.300Z,61.80
2023-03-27T17:44:16.148Z,61.87
2023-03-27T17:46:43.294Z,62.70
2023-03-27T17:49:10.455Z,62.85
2023-03-27T17:51:37.854Z,63.50
2023-03-27T17:54:05.024Z,63.45
2023-03-27T17:56:31.978Z,65.29
2023-03-27T17:59:00.207Z,65.60
2023-03-27T18:01:27.139Z,64.29
2023-03-27T18:03:55.387Z,63.53
2023-03-27T18:06:24.149Z,63.95
2023-03-27T18:08:50.973Z,64.13
2023-03-27T18:11:17.907Z,64.69
2023-03-27T18:13:45.079Z,64.72
2023-03-27T18:16:12.229Z,64.57
2023-03-27T18:18:39.675Z,63.46
2023-03-27T18:21:08.679Z,63.75
2023-03-27T18:23:35.650Z,65.17
2023-03-27T18:26:06.993Z,65.52
2023-03-27T18:28:34.595Z,65.68
2023-03-27T18:31:04.460Z,65.79
2023-03-27T18:33:32.721Z,65.94
2023-03-27T18:35:59.851Z,65.75
2023-03-27T18:38:28.588Z,66.71
2023-03-27T18:40:57.005Z,66.04
2023-03-27T18:43:24.398Z,66.07
2023-03-27T18:46:04.329Z,66.56
2023-03-27T18:48:31.648Z,66.63
2023-03-27T18:51:01.803Z,67.14
2023-03-27T18:53:29.306Z,64.95
2023-03-27T18:55:58.365Z,66.29
2023-03-27T18:58:29.258Z,64.54
2023-03-27T19:00:56.972Z,66.13
2023-03-27T19:03:26.195Z,64.97
2023-03-27T19:05:53.715Z,64.44
2023-03-27T19:08:21.723Z,64.47
2023-03-27T19:10:49.399Z,65.33
2023-03-27T19:13:42.450Z,64.65
2023-03-27T19:16:16.437Z,65.47
2023-03-27T19:18:55.433Z,65.22
2023-03-27T19:21:41.148Z,65.43
2023-03-27T19:24:17.078Z,64.71
2023-03-27T19:26:45.904Z,65.57
2023-03-27T19:29:12.805Z,66.56
2023-03-27T19:31:39.694Z,67.03
2023-03-27T19:34:06.986Z,67.44
2023-03-27T19:36:33.869Z,68.12
2023-03-27T19:39:00.892Z,68.07
2023-03-27T19:41:27.755Z,67.03
2023-03-27T19:43:54.579Z,67.59
2023-03-27T19:46:23.258Z,68.18
2023-03-27T19:48:53.122Z,68.04
2023-03-27T19:51:43.123Z,67.08
2023-03-27T19:54:12.213Z,67.37
2023-03-27T19:56:39.397Z,68.08
2023-03-27T19:59:06.930Z,68.72
2023-03-27T20:01:34.020Z,68.60
2023-03-27T20:04:01.114Z,67.97
2023-03-27T20:06:28.950Z,66.92
2023-03-27T20:09:01.084Z,56.01
2023-03-27T20:11:28.517Z,53.72
2023-03-27T20:13:56.953Z,53.00
2023-03-27T20:16:27.916Z,52.85
2023-03-27T20:19:04.095Z,53.17
2023-03-27T20:21:40.332Z,52.18
2023-03-27T20:24:13.343Z,53.48
2023-03-27T20:26:48.223Z,53.17
2023-03-27T20:29:23.090Z,52.56
2023-03-27T20:31:50.467Z,54.27
2023-03-27T20:34:19.754Z,54.78
2023-03-27T20:36:47.501Z,54.15
2023-03-27T20:39:29.629Z,55.12
2023-03-27T20:41:59.274Z,54.75
2023-03-27T20:44:35.268Z,55.42
2023-03-27T20:47:12.477Z,54.97
2023-03-27T20:49:43.682Z,54.29
2023-03-27T20:52:13.574Z,54.22
2023-03-27T20:54:40.712Z,54.67
2023-03-27T20:57:11.234Z,53.97
2023-03-27T20:59:38.387Z,53.28
2023-03-27T21:02:05.735Z,53.78
2023-03-27T21:04:32.652Z,54.80
2023-03-27T21:06:59.779Z,54.45
2023-03-27T21:09:27.788Z,54.49
2023-03-27T21:11:55.726Z,53.45
2023-03-27T21:14:22.980Z,54.35
2023-03-27T21:16:50.512Z,53.69
2023-03-27T21:19:19.836Z,54.63
2023-03-27T21:21:46.836Z,54.58
2023-03-27T21:24:13.773Z,55.13
2023-03-27T21:26:41.512Z,54.34
2023-03-27T21:29:11.570Z,55.67
2023-03-27T21:31:39.405Z,55.18
2023-03-27T21:34:06.501Z,55.49
2023-03-27T21:36:33.555Z,54.64
2023-03-27T21:39:00.625Z,54.19
2023-03-27T21:41:27.651Z,54.12
2023-03-27T21:43:54.462Z,52.94
2023-03-27T21:46:21.366Z,54.13
2023-03-27T21:48:49.816Z,53.67
2023-03-27T21:51:16.805Z,55.02
2023-03-27T21:53:43.729Z,53.90
2023-03-27T21:56:10.572Z,54.27
2023-03-27T21:58:37.661Z,53.95
2023-03-27T22:01:04.942Z,52.41
2023-03-27T22:03:31.952Z,52.68
2023-03-27T22:06:11.818Z,51.71
2023-03-27T22:08:41.166Z,51.33
2023-03-27T22:11:08.431Z,50.81
2023-03-27T22:13:37.245Z,51.15
2023-03-27T22:16:09.792Z,49.28
2023-03-27T22:18:36.698Z,50.29
2023-03-27T22:21:32.934Z,48.58
2023-03-27T22:23:59.943Z,48.99
2023-03-27T22:26:30.144Z,48.58
2023-03-27T22:28:57.164Z,50.54
2023-03-27T22:31:25.733Z,50.80
2023-03-27T22:33:53.015Z,51.13
2023-03-27T22:36:19.883Z,50.48
2023-03-27T22:38:46.896Z,51.29
2023-03-27T22:41:14.824Z,51.28
2023-03-27T22:43:42.012Z,50.46
2023-03-27T22:46:15.072Z,49.18
2023-03-27T22:48:42.585Z,48.26
2023-03-27T22:51:11.198Z,48.69
2023-03-27T22:53:38.367Z,49.06
2023-03-27T22:56:06.758Z,48.69
2023-03-27T22:58:34.129Z,48.30
2023-03-27T23:01:03.820Z,49.35
2023-03-27T23:03:30.838Z,48.79
2023-03-27T23:05:57.928Z,48.96
2023-03-27T23:08:29.678Z,49.03
2023-03-27T23:11:05.078Z,48.40
2023-03-27T23:13:34.782Z,47.85
2023-03-27T23:16:02.108Z,47.00
2023-03-27T23:18:29.227Z,47.69
2023-03-27T23:21:01.658Z,48.50
2023-03-27T23:23:30.323Z,48.09
2023-03-27T23:25:58.269Z,47.06
2023-03-27T23:28:26.845Z,46.82
2023-03-27T23:30:55.632Z,47.47
2023-03-27T23:33:25.238Z,47.34
2023-03-27T23:36:02.586Z,46.87
2023-03-27T23:38:29.676Z,48.34
2023-03-27T23:40:57.944Z,48.19
2023-03-27T23:43:26.215Z,48.14
2023-03-27T23:45:53.280Z,49.75
2023-03-27T23:48:20.093Z,50.22
2023-03-27T23:50:47.122Z,50.43
2023-03-27T23:53:14.008Z,51.48
2023-03-27T23:55:41.475Z,51.60
2023-03-27T23:58:08.481Z,51.83
